createdAt,value
2023-10-09T00:01:45.242Z,3.33
2023-10-09T00:04:32.616Z,4.67
2023-10-09T00:07:20.823Z,3.57
2023-10-09T00:10:13.851Z,3.80
2023-10-09T00:13:00.861Z,4.60
2023-10-09T00:15:54.069Z,4.17
2023-10-09T00:18:48.327Z,3.43
2023-10-09T00:21:35.892Z,4.00
2023-10-09T00:24:25.025Z,4.03
2023-10-09T00:27:13.555Z,4.43
2023-10-09T00:30:00.794Z,3.40
2023-10-09T00:33:02.787Z,3.70
2023-10-09T00:35:55.632Z,3.20
2023-10-09T00:38:46.684Z,4.13
2023-10-09T00:41:36.473Z,5.27
2023-10-09T00:44:23.468Z,3.70
2023-10-09T00:47:22.364Z,4.03
2023-10-09T00:50:30.686Z,4.77
2023-10-09T00:53:19.467Z,4.27
2023-10-09T00:56:20.148Z,3.93
2023-10-09T00:59:16.129Z,4.10
2023-10-09T01:02:06.465Z,3.87
2023-10-09T01:04:53.560Z,3.90
2023-10-09T01:07:45.724Z,4.57
2023-10-09T01:10:51.475Z,4.53
2023-10-09T01:13:51.654Z,3.80
2023-10-09T01:16:41.218Z,3.80
2023-10-09T01:19:28.820Z,3.70
2023-10-09T01:22:17.001Z,4.67
2023-10-09T01:25:07.153Z,3.70
2023-10-09T01:27:54.185Z,4.40
2023-10-09T01:30:42.830Z,4.73
2023-10-09T01:33:32.152Z,4.57
2023-10-09T01:36:19.620Z,3.93
2023-10-09T01:39:29.864Z,4.53
2023-10-09T01:42:31.916Z,3.93
2023-10-09T01:45:18.998Z,3.87
2023-10-09T01:48:06.702Z,4.07
2023-10-09T01:50:54.784Z,4.33
2023-10-09T01:53:42.807Z,4.63
2023-10-09T01:56:29.814Z,4.23
2023-10-09T01:59:16.988Z,4.97
2023-10-09T02:02:13.456Z,4.30
2023-10-09T02:05:15.477Z,4.57
2023-10-09T02:08:04.901Z,5.93
2023-10-09T02:10:56.176Z,5.90
2023-10-09T02:13:43.906Z,5.20
2023-10-09T02:16:30.935Z,4.20
2023-10-09T02:19:35.357Z,6.37
2023-10-09T02:22:27.062Z,5.53
2023-10-09T02:25:14.112Z,4.60
2023-10-09T02:28:01.080Z,5.47
2023-10-09T02:30:52.547Z,4.80
2023-10-09T02:33:43.205Z,5.13
2023-10-09T02:36:30.265Z,6.40
2023-10-09T02:39:30.162Z,4.93
2023-10-09T02:42:24.248Z,7.20
2023-10-09T02:45:13.079Z,5.40
2023-10-09T02:48:01.287Z,4.90
2023-10-09T02:50:48.485Z,5.63
2023-10-09T02:53:38.503Z,6.73
2023-10-09T02:56:37.237Z,6.07
2023-10-09T02:59:24.617Z,6.83
2023-10-09T03:02:12.129Z,8.27
2023-10-09T03:05:00.659Z,6.67
2023-10-09T03:07:47.657Z,6.93
2023-10-09T03:10:35.297Z,8.67
2023-10-09T03:13:23.131Z,7.90
2023-10-09T03:16:23.137Z,5.60
2023-10-09T03:19:11.933Z,9.13
2023-10-09T03:21:59.010Z,9.30
2023-10-09T03:24:48.485Z,10.23
2023-10-09T03:27:43.000Z,9.20
2023-10-09T03:30:33.628Z,7.57
2023-10-09T03:33:21.119Z,8.43
2023-10-09T03:36:10.503Z,9.40
2023-10-09T03:39:00.881Z,12.00
2023-10-09T03:41:48.283Z,7.97
2023-10-09T03:44:40.367Z,7.20
2023-10-09T03:47:28.894Z,8.00
2023-10-09T03:50:27.910Z,9.17
2023-10-09T03:53:15.486Z,7.30
2023-10-09T03:56:02.860Z,8.47
2023-10-09T03:58:51.247Z,7.47
2023-10-09T04:01:40.853Z,10.37
2023-10-09T04:04:29.948Z,11.47
2023-10-09T04:07:17.839Z,8.10
2023-10-09T04:10:25.528Z,9.80
2023-10-09T04:13:18.056Z,9.63
2023-10-09T04:16:12.571Z,11.67
2023-10-09T04:19:00.572Z,9.93
2023-10-09T04:21:49.237Z,9.93
2023-10-09T04:24:49.463Z,11.33
2023-10-09T04:27:38.572Z,11.40
2023-10-09T04:30:27.423Z,8.30
2023-10-09T04:33:41.730Z,9.97
2023-10-09T04:36:36.862Z,7.00
2023-10-09T04:39:32.993Z,9.03
2023-10-09T04:42:26.029Z,11.00
2023-10-09T04:45:15.640Z,8.63
2023-10-09T04:48:08.051Z,10.23
2023-10-09T04:51:33.449Z,8.57
2023-10-09T04:54:37.684Z,9.47
2023-10-09T04:57:26.630Z,6.87
2023-10-09T05:00:28.423Z,10.03
2023-10-09T05:03:30.645Z,9.07
2023-10-09T05:06:43.618Z,8.50
2023-10-09T05:09:50.952Z,11.70
2023-10-09T05:12:47.370Z,10.70
2023-10-09T05:15:35.883Z,11.23
2023-10-09T05:18:28.511Z,12.87
2023-10-09T05:21:33.695Z,11.53
2023-10-09T05:24:24.456Z,9.87
2023-10-09T05:27:25.625Z,11.20
2023-10-09T05:30:28.484Z,8.93
2023-10-09T05:33:31.082Z,9.50
2023-10-09T05:36:27.023Z,11.07
2023-10-09T05:39:32.842Z,12.13
2023-10-09T05:42:19.910Z,10.77
2023-10-09T05:45:20.374Z,10.73
2023-10-09T05:48:27.753Z,11.73
2023-10-09T05:51:34.776Z,13.10
2023-10-09T05:54:44.735Z,8.93
2023-10-09T05:57:50.047Z,7.53
2023-10-09T06:00:55.873Z,15.00
2023-10-09T06:04:13.575Z,12.13
2023-10-09T06:07:12.182Z,9.67
2023-10-09T06:10:00.171Z,7.90
2023-10-09T06:13:04.817Z,12.63
2023-10-09T06:16:02.477Z,11.60
2023-10-09T06:19:08.882Z,15.13
2023-10-09T06:22:12.706Z,9.93
2023-10-09T06:25:09.679Z,9.70
2023-10-09T06:27:59.626Z,9.63
2023-10-09T06:30:48.726Z,15.43
2023-10-09T06:33:55.765Z,10.60
2023-10-09T06:36:54.041Z,9.93
2023-10-09T06:39:59.358Z,10.77
2023-10-09T06:42:52.276Z,13.63
2023-10-09T06:45:47.244Z,10.97
2023-10-09T06:48:40.049Z,9.17
2023-10-09T06:51:27.295Z,11.47
2023-10-09T06:54:17.690Z,14.60
2023-10-09T06:57:31.729Z,8.27
2023-10-09T07:00:37.633Z,10.43
2023-10-09T07:03:33.992Z,11.47
2023-10-09T07:06:25.954Z,10.70
2023-10-09T07:09:14.890Z,9.97
2023-10-09T07:12:04.793Z,10.80
2023-10-09T07:14:51.864Z,11.40
2023-10-09T07:17:38.851Z,11.37
2023-10-09T07:20:38.122Z,9.93
2023-10-09T07:23:29.460Z,8.87
2023-10-09T07:26:19.772Z,8.23
2023-10-09T07:29:17.416Z,11.63
2023-10-09T07:32:13.644Z,13.17
2023-10-09T07:35:00.984Z,9.57
2023-10-09T07:37:51.897Z,9.93
2023-10-09T07:40:58.883Z,11.40
2023-10-09T07:43:45.987Z,13.07
2023-10-09T07:46:34.284Z,10.90
2023-10-09T07:49:27.804Z,10.53
2023-10-09T07:52:16.039Z,14.83
2023-10-09T07:55:04.087Z,10.60
2023-10-09T07:57:53.238Z,10.83
2023-10-09T08:00:59.109Z,9.67
2023-10-09T08:03:58.855Z,10.63
2023-10-09T08:07:01.959Z,13.50
2023-10-09T08:10:14.045Z,10.97
2023-10-09T08:13:22.676Z,11.70
2023-10-09T08:16:18.445Z,9.00
2023-10-09T08:19:29.253Z,9.33
2023-10-09T08:22:25.234Z,10.97
2023-10-09T08:25:27.183Z,11.10
2023-10-09T08:28:32.924Z,7.10
2023-10-09T08:31:20.665Z,9.23
2023-10-09T08:37:01.539Z,12.27
2023-10-09T08:39:50.879Z,9.90
2023-10-09T08:42:39.426Z,11.77
2023-10-09T08:45:28.714Z,9.97
2023-10-09T08:48:19.276Z,9.43
2023-10-09T08:51:07.523Z,11.93
2023-10-09T08:53:55.711Z,13.20
2023-10-09T08:56:52.088Z,10.73
2023-10-09T08:59:45.657Z,7.53
2023-10-09T09:02:35.661Z,11.57
2023-10-09T09:05:23.086Z,12.27
2023-10-09T09:08:27.055Z,12.90
2023-10-09T09:11:24.361Z,13.57
2023-10-09T09:14:20.055Z,7.73
2023-10-09T09:17:12.336Z,10.33
2023-10-09T09:19:59.914Z,11.63
2023-10-09T09:22:57.333Z,9.13
2023-10-09T09:26:00.339Z,11.23
2023-10-09T09:28:56.397Z,11.37
2023-10-09T09:31:58.958Z,14.60
2023-10-09T09:34:50.882Z,8.67
2023-10-09T09:37:43.805Z,13.93
2023-10-09T09:40:35.347Z,11.13
2023-10-09T09:43:23.571Z,11.33
2023-10-09T09:46:13.008Z,8.57
2023-10-09T09:49:13.578Z,12.53
2023-10-09T09:52:10.961Z,10.43
2023-10-09T09:54:59.517Z,7.73
2023-10-09T09:57:52.864Z,11.43
2023-10-09T10:00:43.117Z,14.13
2023-10-09T10:03:39.819Z,12.43
2023-10-09T10:06:30.329Z,12.17
2023-10-09T10:09:40.296Z,9.73
2023-10-09T10:12:47.645Z,14.20
2023-10-09T10:15:58.486Z,12.70
2023-10-09T10:19:01.627Z,13.27
2023-10-09T10:21:55.334Z,9.10
2023-10-09T10:24:55.417Z,10.43
2023-10-09T10:28:01.847Z,14.63
2023-10-09T10:30:52.040Z,10.40
2023-10-09T10:33:57.478Z,11.83
2023-10-09T10:36:45.850Z,11.40
2023-10-09T10:39:43.880Z,15.17
2023-10-09T10:42:39.501Z,12.73
2023-10-09T10:45:35.716Z,8.93
2023-10-09T10:48:38.182Z,9.23
2023-10-09T10:51:25.302Z,10.13
2023-10-09T10:54:30.587Z,12.70
2023-10-09T10:57:38.685Z,10.43
2023-10-09T11:00:44.325Z,11.63
2023-10-09T11:03:37.012Z,14.77
2023-10-09T11:06:38.720Z,9.10
2023-10-09T11:09:51.988Z,10.00
2023-10-09T11:12:41.075Z,11.60
2023-10-09T11:15:45.279Z,10.13
2023-10-09T11:18:44.047Z,10.43
2023-10-09T11:21:41.709Z,9.23
2023-10-09T11:24:34.455Z,10.60
2023-10-09T11:27:25.779Z,12.73
2023-10-09T11:30:22.804Z,10.57
2023-10-09T11:33:15.536Z,11.03
2023-10-09T11:36:08.233Z,12.27
2023-10-09T11:39:13.926Z,9.53
2023-10-09T11:42:08.442Z,9.70
2023-10-09T11:44:56.688Z,10.00
2023-10-09T11:47:55.461Z,9.83
2023-10-09T11:50:54.728Z,15.70
2023-10-09T11:53:55.562Z,8.37
2023-10-09T11:56:43.889Z,9.87
2023-10-09T11:59:42.409Z,8.67
2023-10-09T12:02:29.667Z,11.57
2023-10-09T12:05:18.316Z,10.93
2023-10-09T12:08:09.611Z,14.10
2023-10-09T12:10:56.822Z,11.87
2023-10-09T12:13:43.917Z,12.17
2023-10-09T12:16:34.084Z,10.30
2023-10-09T12:19:22.969Z,11.20
2023-10-09T12:22:17.315Z,10.90
2023-10-09T12:25:10.423Z,13.57
2023-10-09T12:27:58.464Z,9.87
2023-10-09T12:30:51.376Z,14.87
2023-10-09T12:33:40.808Z,8.00
2023-10-09T12:36:28.077Z,9.73
2023-10-09T12:39:18.747Z,13.43
2023-10-09T12:42:10.063Z,10.63
2023-10-09T12:44:58.999Z,10.63
2023-10-09T12:47:47.127Z,14.47
2023-10-09T12:50:45.267Z,12.47
2023-10-09T12:53:32.831Z,10.37
2023-10-09T12:56:19.920Z,13.10
2023-10-09T12:59:08.328Z,8.17
2023-10-09T13:01:59.187Z,15.43
2023-10-09T13:04:46.646Z,11.63
2023-10-09T13:07:34.145Z,16.03
2023-10-09T13:10:21.398Z,11.53
2023-10-09T13:13:08.370Z,12.00
2023-10-09T13:15:55.434Z,8.87
2023-10-09T13:18:50.938Z,10.90
2023-10-09T13:21:40.282Z,7.50
2023-10-09T13:24:31.055Z,14.23
2023-10-09T13:27:22.751Z,10.70
2023-10-09T13:30:22.490Z,7.47
2023-10-09T13:33:18.078Z,13.80
2023-10-09T13:36:06.288Z,13.30
2023-10-09T13:38:57.235Z,10.77
2023-10-09T13:41:44.222Z,13.13
2023-10-09T13:44:33.202Z,9.90
2023-10-09T13:47:21.836Z,8.60
2023-10-09T13:50:10.750Z,8.83
2023-10-09T13:52:57.932Z,10.80
2023-10-09T13:55:45.266Z,9.27
2023-10-09T13:58:32.699Z,8.37
2023-10-09T14:01:28.983Z,14.53
2023-10-09T14:04:19.699Z,13.23
2023-10-09T14:07:07.309Z,9.47
2023-10-09T14:10:07.998Z,13.13
2023-10-09T14:12:56.645Z,9.80
2023-10-09T14:15:44.883Z,14.43
2023-10-09T14:18:32.105Z,13.93
2023-10-09T14:21:19.184Z,11.63
2023-10-09T14:24:18.738Z,11.70
2023-10-09T14:27:07.706Z,11.43
2023-10-09T14:30:00.902Z,10.33
2023-10-09T14:32:53.054Z,12.63
2023-10-09T14:35:45.580Z,11.93
2023-10-09T14:38:34.180Z,15.37
2023-10-09T14:41:24.363Z,15.47
2023-10-09T14:44:17.648Z,14.30
2023-10-09T14:47:09.007Z,10.50
2023-10-09T14:50:02.692Z,13.07
2023-10-09T14:52:51.886Z,10.60
2023-10-09T14:55:39.700Z,12.70
2023-10-09T14:58:26.896Z,11.37
2023-10-09T15:01:16.260Z,11.73
2023-10-09T15:04:04.930Z,13.63
2023-10-09T15:06:52.678Z,19.87
2023-10-09T15:09:41.228Z,14.07
2023-10-09T15:12:28.276Z,11.43
2023-10-09T15:15:15.777Z,13.30
2023-10-09T15:18:04.379Z,13.63
2023-10-09T15:20:52.727Z,15.63
2023-10-09T15:23:39.847Z,10.70
2023-10-09T15:26:33.314Z,9.10
2023-10-09T15:29:24.617Z,15.77
2023-10-09T15:32:23.756Z,13.47
2023-10-09T15:35:11.477Z,11.43
2023-10-09T15:38:03.845Z,14.83
2023-10-09T15:40:50.838Z,14.63
2023-10-09T15:43:38.185Z,10.70
2023-10-09T15:46:26.949Z,14.73
2023-10-09T15:49:15.151Z,9.93
2023-10-09T15:52:04.777Z,12.50
2023-10-09T15:54:52.030Z,10.67
2023-10-09T15:57:39.020Z,11.60
2023-10-09T16:00:30.076Z,7.57
2023-10-09T16:03:18.995Z,10.87
2023-10-09T16:06:06.369Z,14.83
2023-10-09T16:08:53.456Z,20.03
2023-10-09T16:11:40.958Z,15.97
2023-10-09T16:14:28.581Z,16.60
2023-10-09T16:17:16.676Z,10.90
2023-10-09T16:20:06.683Z,8.17
2023-10-09T16:22:54.192Z,10.77
2023-10-09T16:25:41.998Z,10.33
2023-10-09T16:28:29.122Z,14.80
2023-10-09T16:31:19.905Z,11.57
2023-10-09T16:34:08.183Z,11.13
2023-10-09T16:36:55.746Z,13.97
2023-10-09T16:39:43.145Z,10.50
2023-10-09T16:42:30.161Z,11.17
2023-10-09T16:45:18.512Z,11.57
2023-10-09T16:48:09.199Z,13.13
2023-10-09T16:50:57.134Z,18.67
2023-10-09T16:53:44.135Z,9.20
2023-10-09T16:56:34.617Z,11.43
2023-10-09T16:59:23.573Z,35.03
2023-10-09T17:02:14.252Z,46.90
2023-10-09T17:05:04.327Z,36.27
2023-10-09T17:07:51.492Z,20.43
2023-10-09T17:10:46.324Z,15.10
2023-10-09T17:13:34.219Z,10.70
2023-10-09T17:16:22.888Z,14.93
2023-10-09T17:19:10.408Z,12.93
2023-10-09T17:21:58.041Z,12.37
2023-10-09T17:24:46.120Z,11.30
2023-10-09T17:27:33.457Z,14.27
2023-10-09T17:30:20.600Z,13.27
2023-10-09T17:33:07.606Z,16.70
2023-10-09T17:35:56.384Z,12.50
2023-10-09T17:38:53.356Z,12.27
2023-10-09T17:41:40.326Z,11.37
2023-10-09T17:44:28.590Z,15.17
2023-10-09T17:47:16.554Z,13.53
2023-10-09T17:50:14.277Z,8.53
2023-10-09T17:53:05.672Z,10.50
2023-10-09T17:55:53.779Z,15.47
2023-10-09T17:58:45.294Z,14.03
2023-10-09T18:01:34.092Z,11.43
2023-10-09T18:04:21.104Z,11.20
2023-10-09T18:07:14.773Z,10.80
2023-10-09T18:10:06.752Z,8.93
2023-10-09T18:12:54.582Z,14.40
2023-10-09T18:15:44.100Z,13.57
2023-10-09T18:18:32.883Z,11.97
2023-10-09T18:21:21.112Z,17.13
2023-10-09T18:24:14.965Z,12.40
2023-10-09T18:27:02.819Z,9.20
2023-10-09T18:29:50.474Z,14.13
2023-10-09T18:32:37.886Z,11.33
2023-10-09T18:35:25.721Z,15.10
2023-10-09T18:38:17.349Z,11.30
2023-10-09T18:41:08.445Z,14.00
2023-10-09T18:43:58.653Z,14.97
2023-10-09T18:46:46.076Z,12.23
2023-10-09T18:49:33.145Z,10.63
2023-10-09T18:52:21.496Z,10.73
2023-10-09T18:55:09.601Z,11.43
2023-10-09T18:57:58.177Z,10.90
2023-10-09T19:00:52.765Z,9.33
2023-10-09T19:03:47.833Z,12.07
2023-10-09T19:06:38.905Z,12.93
2023-10-09T19:09:26.656Z,15.27
2023-10-09T19:12:13.644Z,9.10
2023-10-09T19:15:00.949Z,14.40
2023-10-09T19:17:48.148Z,10.50
2023-10-09T19:20:39.582Z,9.93
2023-10-09T19:23:26.751Z,13.60
2023-10-09T19:26:16.848Z,10.93
2023-10-09T19:29:04.046Z,9.97
2023-10-09T19:31:52.109Z,12.33
2023-10-09T19:34:39.470Z,10.83
2023-10-09T19:37:27.881Z,12.13
2023-10-09T19:40:15.191Z,11.73
2023-10-09T19:43:02.245Z,13.17
2023-10-09T19:45:52.227Z,12.03
2023-10-09T19:48:39.215Z,18.77
2023-10-09T19:51:26.361Z,13.67
2023-10-09T19:54:14.459Z,13.60
2023-10-09T19:57:01.483Z,9.60
2023-10-09T19:59:49.228Z,10.27
2023-10-09T20:02:37.121Z,9.73
2023-10-09T20:05:24.541Z,8.90
2023-10-09T20:08:11.642Z,11.97
2023-10-09T20:11:16.300Z,14.47
2023-10-09T20:14:04.123Z,15.60
2023-10-09T20:16:51.308Z,12.87
2023-10-09T20:19:41.092Z,11.37
2023-10-09T20:22:28.600Z,12.47
2023-10-09T20:25:15.714Z,13.70
2023-10-09T20:28:02.716Z,17.27
2023-10-09T20:30:53.550Z,14.83
2023-10-09T20:33:43.290Z,13.00
2023-10-09T20:36:31.735Z,11.13
2023-10-09T20:39:22.031Z,13.60
2023-10-09T20:42:10.287Z,13.10
2023-10-09T20:44:57.304Z,15.37
2023-10-09T20:47:49.293Z,19.40
2023-10-09T20:50:40.625Z,11.73
2023-10-09T20:53:28.794Z,12.10
2023-10-09T20:56:15.870Z,12.93
2023-10-09T20:59:03.424Z,16.73
2023-10-09T21:01:50.634Z,16.43
2023-10-09T21:04:37.774Z,10.43
2023-10-09T21:07:25.525Z,10.10
2023-10-09T21:10:14.986Z,10.13
2023-10-09T21:13:02.126Z,14.13
2023-10-09T21:15:49.222Z,9.27
2023-10-09T21:18:36.553Z,9.37
2023-10-09T21:21:24.795Z,9.17
2023-10-09T21:24:14.863Z,9.80
2023-10-09T21:27:01.939Z,14.23
2023-10-09T21:29:48.926Z,12.07
2023-10-09T21:32:42.456Z,7.80
2023-10-09T21:35:29.836Z,11.53
2023-10-09T21:38:17.215Z,12.63
2023-10-09T21:41:13.108Z,9.57
2023-10-09T21:44:00.447Z,11.60
2023-10-09T21:46:47.488Z,14.37
2023-10-09T21:49:34.624Z,12.77
2023-10-09T21:52:21.597Z,10.70
2023-10-09T21:55:09.430Z,10.77
2023-10-09T21:57:56.533Z,11.60
2023-10-09T22:00:47.950Z,10.13
2023-10-09T22:03:36.897Z,11.13
2023-10-09T22:06:25.149Z,11.83
2023-10-09T22:09:15.813Z,12.30
2023-10-09T22:12:03.917Z,9.87
2023-10-09T22:14:52.327Z,12.90
2023-10-09T22:17:44.589Z,14.17
2023-10-09T22:20:31.887Z,12.37
2023-10-09T22:23:31.933Z,12.13
2023-10-09T22:26:21.360Z,13.17
2023-10-09T22:29:11.173Z,9.30
2023-10-09T22:32:00.810Z,11.30
2023-10-09T22:34:50.890Z,9.50
2023-10-09T22:37:38.635Z,11.60
2023-10-09T22:40:29.434Z,12.73
2023-10-09T22:43:21.486Z,13.33
2023-10-09T22:46:08.871Z,14.17
2023-10-09T22:49:14.125Z,9.20
2023-10-09T22:52:12.040Z,11.80
2023-10-09T22:55:06.374Z,10.23
2023-10-09T22:57:57.311Z,9.27
2023-10-09T23:00:50.299Z,13.83
2023-10-09T23:03:41.551Z,9.57
2023-10-09T23:06:34.854Z,15.47
2023-10-09T23:09:47.869Z,12.40
2023-10-09T23:12:37.692Z,8.40
2023-10-09T23:15:36.913Z,7.60
2023-10-09T23:18:34.120Z,12.87
2023-10-09T23:21:21.219Z,11.73
2023-10-09T23:24:11.137Z,7.73
2023-10-09T23:26:58.175Z,10.60
2023-10-09T23:29:52.878Z,14.03
2023-10-09T23:32:49.033Z,10.97
2023-10-09T23:35:51.475Z,12.10
2023-10-09T23:38:58.477Z,9.10
2023-10-09T23:41:59.761Z,14.83
2023-10-09T23:44:48.960Z,10.07
2023-10-09T23:47:36.140Z,9.53
2023-10-09T23:50:23.421Z,8.93
2023-10-09T23:53:10.754Z,12.90
2023-10-09T23:56:04.974Z,9.40
2023-10-09T23:58:53.162Z,9.97
